createdAt,value
2023-05-05T00:00:00.726Z,52.20
2023-05-05T00:02:28.977Z,52.30
2023-05-05T00:04:58.447Z,52.40
2023-05-05T00:07:26.532Z,52.40
2023-05-05T00:09:54.797Z,52.40
2023-05-05T00:12:22.883Z,52.40
2023-05-05T00:14:50.955Z,52.30
2023-05-05T00:17:19.075Z,52.30
2023-05-05T00:19:47.187Z,52.40
2023-05-05T00:22:16.665Z,52.50
2023-05-05T00:24:44.741Z,52.60
2023-05-05T00:27:12.806Z,52.50
2023-05-05T00:29:40.975Z,52.30
2023-05-05T00:32:09.059Z,52.50
2023-05-05T00:34:37.131Z,52.70
2023-05-05T00:37:05.168Z,52.70
2023-05-05T00:39:34.778Z,52.80
2023-05-05T00:42:02.854Z,52.90
2023-05-05T00:44:38.061Z,52.90
2023-05-05T00:47:06.882Z,53.00
2023-05-05T00:49:35.629Z,52.80
2023-05-05T00:52:04.805Z,52.70
2023-05-05T00:54:34.411Z,52.60
2023-05-05T00:57:02.884Z,52.80
2023-05-05T00:59:32.519Z,52.80
2023-05-05T01:02:01.012Z,52.90
2023-05-05T01:04:29.095Z,52.90
2023-05-05T01:07:07.568Z,53.00
2023-05-05T01:09:42.956Z,53.10
2023-05-05T01:12:21.256Z,53.20
2023-05-05T01:15:01.596Z,53.10
2023-05-05T01:17:36.222Z,53.10
2023-05-05T01:20:13.213Z,52.90
2023-05-05T01:22:47.804Z,52.80
2023-05-05T01:26:06.804Z,52.70
2023-05-05T01:29:02.142Z,52.50
2023-05-05T01:31:52.107Z,52.40
2023-05-05T01:34:25.686Z,52.50
2023-05-05T01:36:59.464Z,52.50
2023-05-05T01:39:32.561Z,52.60
2023-05-05T01:42:05.449Z,52.80
2023-05-05T01:44:36.153Z,53.00
2023-05-05T01:47:06.411Z,53.10
2023-05-05T01:49:36.345Z,53.10
2023-05-05T01:52:07.113Z,53.00
2023-05-05T01:54:36.333Z,53.10
2023-05-05T01:57:07.210Z,53.20
2023-05-05T01:59:36.977Z,53.30
2023-05-05T02:02:09.545Z,53.30
2023-05-05T02:04:42.202Z,53.40
2023-05-05T02:07:11.292Z,53.40
2023-05-05T02:09:40.453Z,53.60
2023-05-05T02:12:09.452Z,53.70
2023-05-05T02:14:38.080Z,53.80
2023-05-05T02:17:07.872Z,53.70
2023-05-05T02:19:40.057Z,53.90
2023-05-05T02:22:08.477Z,53.90
2023-05-05T02:24:36.803Z,53.80
2023-05-05T02:27:08.463Z,53.60
2023-05-05T02:29:40.472Z,53.80
2023-05-05T02:32:16.973Z,53.90
2023-05-05T02:34:49.073Z,54.10
2023-05-05T02:37:21.027Z,54.10
2023-05-05T02:39:58.402Z,54.30
2023-05-05T02:42:29.835Z,53.70
2023-05-05T02:45:00.837Z,54.00
2023-05-05T02:47:36.375Z,54.20
2023-05-05T02:50:05.345Z,54.40
2023-05-05T02:52:34.135Z,54.20
2023-05-05T02:55:04.090Z,54.30
2023-05-05T02:57:38.761Z,54.30
2023-05-05T03:00:13.736Z,54.40
2023-05-05T03:02:48.013Z,54.30
2023-05-05T03:05:21.861Z,54.90
2023-05-05T03:07:56.669Z,54.90
2023-05-05T03:10:30.061Z,54.30
2023-05-05T03:13:01.294Z,54.30
2023-05-05T03:15:37.045Z,54.30
2023-05-05T03:18:10.600Z,54.30
2023-05-05T03:20:41.067Z,54.40
2023-05-05T03:23:09.348Z,54.40
2023-05-05T03:25:44.224Z,54.30
2023-05-05T03:28:12.519Z,54.50
2023-05-05T03:30:41.096Z,54.40
2023-05-05T03:33:12.555Z,54.40
2023-05-05T03:35:40.600Z,54.50
2023-05-05T03:38:08.653Z,54.50
2023-05-05T03:40:44.233Z,54.50
2023-05-05T03:43:12.980Z,54.50
2023-05-05T03:45:41.056Z,54.50
2023-05-05T03:48:10.572Z,54.40
2023-05-05T03:50:38.707Z,54.50
2023-05-05T03:53:06.912Z,54.50
2023-05-05T03:55:35.268Z,54.50
2023-05-05T03:58:03.329Z,54.60
2023-05-05T04:00:31.667Z,54.70
2023-05-05T04:02:59.896Z,54.80
2023-05-05T04:05:29.414Z,54.80
2023-05-05T04:07:57.889Z,54.90
2023-05-05T04:10:26.018Z,55.00
2023-05-05T04:12:54.093Z,55.10
2023-05-05T04:15:22.517Z,55.20
2023-05-05T04:17:50.690Z,55.20
2023-05-05T04:20:18.960Z,55.20
2023-05-05T04:22:48.673Z,55.20
2023-05-05T04:25:17.604Z,55.30
2023-05-05T04:27:45.823Z,55.30
2023-05-05T04:30:15.005Z,55.30
2023-05-05T04:32:43.099Z,55.40
2023-05-05T04:35:11.344Z,55.40
2023-05-05T04:37:39.462Z,55.50
2023-05-05T04:40:10.619Z,55.60
2023-05-05T04:42:38.731Z,55.90
2023-05-05T04:45:07.844Z,55.80
2023-05-05T04:47:38.749Z,55.90
2023-05-05T04:50:08.183Z,56.00
2023-05-05T04:52:36.725Z,56.00
2023-05-05T04:55:05.096Z,56.10
2023-05-05T04:57:34.544Z,56.10
2023-05-05T05:00:04.904Z,56.20
2023-05-05T05:02:33.146Z,56.20
2023-05-05T05:05:01.313Z,56.20
2023-05-05T05:07:29.348Z,56.30
2023-05-05T05:09:57.404Z,56.40
2023-05-05T05:12:25.501Z,56.70
2023-05-05T05:14:54.948Z,56.70
2023-05-05T05:17:24.088Z,56.60
2023-05-05T05:19:52.145Z,56.60
2023-05-05T05:22:20.188Z,56.80
2023-05-05T05:24:48.265Z,56.80
2023-05-05T05:27:16.339Z,56.80
2023-05-05T05:29:44.608Z,56.70
2023-05-05T05:32:14.195Z,56.70
2023-05-05T05:34:42.342Z,56.90
2023-05-05T05:37:10.449Z,57.00
2023-05-05T05:39:38.808Z,57.20
2023-05-05T05:42:07.805Z,57.10
2023-05-05T05:44:35.914Z,57.00
2023-05-05T05:47:03.966Z,56.90
2023-05-05T05:49:33.393Z,56.80
2023-05-05T05:52:01.515Z,56.70
2023-05-05T05:54:29.592Z,56.40
2023-05-05T05:56:57.620Z,56.20
2023-05-05T05:59:25.695Z,56.50
2023-05-05T06:01:53.797Z,56.80
2023-05-05T06:04:21.859Z,57.00
2023-05-05T06:06:51.625Z,57.00
2023-05-05T06:09:19.687Z,57.20
2023-05-05T06:11:47.722Z,57.00
2023-05-05T06:14:16.644Z,57.00
2023-05-05T06:16:46.095Z,57.30
2023-05-05T06:19:14.160Z,56.70
2023-05-05T06:21:42.551Z,56.40
2023-05-05T06:24:12.036Z,56.40
2023-05-05T06:26:40.147Z,56.70
2023-05-05T06:29:09.572Z,56.20
2023-05-05T06:31:39.215Z,56.20
2023-05-05T06:34:07.308Z,55.30
2023-05-05T06:36:35.742Z,55.00
2023-05-05T06:39:03.937Z,55.10
2023-05-05T06:41:33.356Z,54.70
2023-05-05T06:44:01.554Z,54.40
2023-05-05T06:46:29.643Z,54.30
2023-05-05T06:48:57.691Z,54.20
2023-05-05T06:51:26.498Z,54.00
2023-05-05T06:53:54.569Z,53.70
2023-05-05T06:56:22.648Z,54.10
2023-05-05T06:58:52.049Z,53.50
2023-05-05T07:01:20.377Z,53.20
2023-05-05T07:03:48.506Z,53.10
2023-05-05T07:06:16.560Z,52.80
2023-05-05T07:08:44.628Z,52.50
2023-05-05T07:11:12.660Z,52.50
2023-05-05T07:13:41.226Z,52.40
2023-05-05T07:16:11.060Z,52.30
2023-05-05T07:18:39.269Z,52.30
2023-05-05T07:21:07.577Z,52.30
2023-05-05T07:23:37.373Z,52.50
2023-05-05T07:26:05.609Z,52.30
2023-05-05T07:28:33.645Z,52.10
2023-05-05T07:31:02.010Z,52.10
2023-05-05T07:33:31.454Z,52.30
2023-05-05T07:35:59.499Z,52.40
2023-05-05T07:38:28.521Z,52.30
2023-05-05T07:40:56.649Z,52.20
2023-05-05T07:43:24.709Z,52.00
2023-05-05T07:45:52.880Z,52.00
2023-05-05T07:48:21.335Z,51.80
2023-05-05T07:50:52.445Z,51.80
2023-05-05T07:53:20.549Z,51.60
2023-05-05T07:55:48.607Z,51.80
2023-05-05T07:58:16.642Z,51.70
2023-05-05T08:00:44.832Z,51.80
2023-05-05T08:03:13.095Z,51.90
2023-05-05T08:05:41.418Z,51.80
2023-05-05T08:08:10.896Z,51.90
2023-05-05T08:10:39.006Z,52.10
2023-05-05T08:13:07.066Z,51.70
2023-05-05T08:15:35.166Z,51.70
2023-05-05T08:18:03.315Z,51.50
2023-05-05T08:20:31.576Z,51.40
2023-05-05T08:22:59.777Z,51.30
2023-05-05T08:25:29.320Z,51.40
2023-05-05T08:27:57.517Z,51.50
2023-05-05T08:30:25.608Z,51.50
2023-05-05T08:32:53.784Z,51.40
2023-05-05T08:35:22.137Z,51.50
2023-05-05T08:37:51.423Z,51.50
2023-05-05T08:40:20.918Z,51.50
2023-05-05T08:42:50.704Z,51.50
2023-05-05T08:45:18.760Z,51.30
2023-05-05T08:47:46.981Z,51.30
2023-05-05T08:50:17.685Z,51.30
2023-05-05T08:52:52.821Z,51.30
2023-05-05T08:55:25.471Z,51.50
2023-05-05T08:57:57.943Z,51.30
2023-05-05T09:00:27.207Z,51.30
2023-05-05T09:02:57.815Z,51.30
2023-05-05T09:05:26.107Z,51.40
2023-05-05T09:07:54.405Z,51.40
2023-05-05T09:10:22.596Z,51.40
2023-05-05T09:12:51.494Z,51.10
2023-05-05T09:15:21.082Z,50.80
2023-05-05T09:17:49.176Z,50.60
2023-05-05T09:20:17.277Z,50.60
2023-05-05T09:22:46.653Z,50.90
2023-05-05T09:25:16.076Z,50.50
2023-05-05T09:27:46.960Z,50.30
2023-05-05T09:30:17.147Z,50.30
2023-05-05T09:32:50.650Z,50.30
2023-05-05T09:35:20.339Z,50.10
2023-05-05T09:37:48.791Z,50.30
2023-05-05T09:40:18.934Z,50.30
2023-05-05T09:42:47.347Z,50.20
2023-05-05T09:45:28.477Z,50.20
2023-05-05T09:48:00.236Z,50.20
2023-05-05T09:50:30.979Z,49.90
2023-05-05T09:53:00.676Z,49.90
2023-05-05T09:55:29.091Z,49.90
2023-05-05T09:57:57.285Z,49.80
2023-05-05T10:00:39.703Z,49.90
2023-05-05T10:03:09.190Z,49.40
2023-05-05T10:05:49.050Z,49.30
2023-05-05T10:08:18.019Z,49.50
2023-05-05T10:10:50.501Z,49.30
2023-05-05T10:13:20.640Z,49.00
2023-05-05T10:15:50.985Z,49.10
2023-05-05T10:18:23.842Z,48.80
2023-05-05T10:20:58.112Z,48.70
2023-05-05T10:23:33.115Z,48.40
2023-05-05T10:26:04.616Z,48.40
2023-05-05T10:28:38.253Z,48.30
2023-05-05T10:31:23.912Z,48.60
2023-05-05T10:34:06.752Z,47.70
2023-05-05T10:36:35.251Z,48.00
2023-05-05T10:39:06.700Z,48.00
2023-05-05T10:41:35.129Z,48.10
2023-05-05T10:44:04.553Z,48.50
2023-05-05T10:46:33.344Z,48.10
2023-05-05T10:49:13.175Z,48.00
2023-05-05T10:51:48.363Z,48.00
2023-05-05T10:54:24.377Z,47.90
2023-05-05T10:56:53.004Z,47.80
2023-05-05T10:59:43.555Z,47.80
2023-05-05T11:02:22.505Z,47.50
2023-05-05T11:05:14.439Z,47.50
2023-05-05T11:07:43.230Z,47.00
2023-05-05T11:10:12.718Z,47.40
2023-05-05T11:13:21.255Z,47.40
2023-05-05T11:15:50.779Z,47.40
2023-05-05T11:18:31.427Z,47.40
2023-05-05T11:21:18.181Z,47.70
2023-05-05T11:23:48.350Z,47.50
2023-05-05T11:26:17.820Z,47.60
2023-05-05T11:29:00.726Z,47.50
2023-05-05T11:31:29.638Z,47.50
2023-05-05T11:34:31.085Z,47.20
2023-05-05T11:37:03.414Z,47.20
2023-05-05T11:39:42.173Z,47.50
2023-05-05T11:42:27.932Z,47.20
2023-05-05T11:44:56.278Z,47.00
2023-05-05T11:47:32.097Z,46.90
2023-05-05T11:50:16.134Z,47.00
2023-05-05T11:52:45.574Z,47.00
2023-05-05T11:55:13.759Z,46.90
2023-05-05T11:57:41.803Z,47.10
2023-05-05T12:00:10.805Z,47.20
2023-05-05T12:02:39.218Z,47.20
2023-05-05T12:05:08.136Z,47.50
2023-05-05T12:07:36.269Z,47.90
2023-05-05T12:10:06.529Z,48.10
2023-05-05T12:12:36.767Z,47.80
2023-05-05T12:15:05.693Z,48.10
2023-05-05T12:17:42.640Z,48.40
2023-05-05T12:20:12.775Z,48.60
2023-05-05T12:22:41.540Z,48.60
2023-05-05T12:25:11.796Z,48.70
2023-05-05T12:27:39.937Z,48.80
2023-05-05T12:30:16.342Z,49.00
2023-05-05T12:32:45.112Z,49.30
2023-05-05T12:35:14.431Z,48.80
2023-05-05T12:37:43.497Z,48.70
2023-05-05T12:40:47.716Z,48.80
2023-05-05T12:43:32.700Z,49.10
2023-05-05T12:46:06.008Z,48.90
2023-05-05T12:48:35.079Z,49.00
2023-05-05T12:51:20.069Z,49.00
2023-05-05T12:53:49.844Z,48.90
2023-05-05T12:56:32.462Z,48.90
2023-05-05T12:59:00.940Z,48.60
2023-05-05T13:01:29.474Z,48.10
2023-05-05T13:04:07.925Z,47.80
2023-05-05T13:06:36.221Z,47.30
2023-05-05T13:09:04.995Z,47.40
2023-05-05T13:11:38.196Z,47.50
2023-05-05T13:14:07.467Z,47.50
2023-05-05T13:16:35.919Z,47.50
2023-05-05T13:19:04.048Z,47.50
2023-05-05T13:21:32.213Z,47.50
2023-05-05T13:24:12.489Z,48.00
2023-05-05T13:26:49.869Z,48.00
2023-05-05T13:29:18.304Z,48.10
2023-05-05T13:31:46.952Z,48.40
2023-05-05T13:34:15.180Z,48.70
2023-05-05T13:36:43.242Z,49.10
2023-05-05T13:39:11.330Z,49.20
2023-05-05T13:41:39.461Z,49.20
2023-05-05T13:44:08.901Z,49.50
2023-05-05T13:46:37.026Z,49.70
2023-05-05T13:49:06.437Z,49.70
2023-05-05T13:51:35.015Z,49.50
2023-05-05T13:54:03.271Z,49.40
2023-05-05T13:56:31.457Z,49.10
2023-05-05T13:59:00.964Z,48.70
2023-05-05T14:01:31.193Z,47.60
2023-05-05T14:03:59.450Z,47.40
2023-05-05T14:06:27.798Z,47.30
2023-05-05T14:08:55.881Z,47.20
2023-05-05T14:11:24.331Z,47.10
2023-05-05T14:13:52.785Z,46.90
2023-05-05T14:16:21.103Z,47.10
2023-05-05T14:18:50.543Z,47.00
2023-05-05T14:21:18.562Z,46.60
2023-05-05T14:23:46.625Z,46.60
2023-05-05T14:26:14.714Z,46.40
2023-05-05T14:28:43.517Z,46.50
2023-05-05T14:31:11.984Z,46.40
2023-05-05T14:33:40.161Z,46.40
2023-05-05T14:36:10.505Z,46.50
2023-05-05T14:38:38.639Z,46.40
2023-05-05T14:41:06.870Z,46.40
2023-05-05T14:43:34.938Z,46.20
2023-05-05T14:46:06.690Z,46.40
2023-05-05T14:48:35.584Z,46.20
2023-05-05T14:51:04.215Z,46.30
2023-05-05T14:53:33.633Z,46.10
2023-05-05T14:56:02.242Z,46.20
2023-05-05T14:58:31.083Z,46.20
2023-05-05T15:01:00.506Z,46.20
2023-05-05T15:03:28.855Z,46.10
2023-05-05T15:05:57.047Z,45.80
2023-05-05T15:08:25.375Z,46.10
2023-05-05T15:10:54.805Z,45.90
2023-05-05T15:13:22.954Z,46.00
2023-05-05T15:15:51.387Z,46.20
2023-05-05T15:18:20.049Z,46.40
2023-05-05T15:20:48.142Z,46.60
2023-05-05T15:23:16.237Z,45.80
2023-05-05T15:25:44.321Z,45.30
2023-05-05T15:28:13.729Z,44.60
2023-05-05T15:30:41.760Z,44.20
2023-05-05T15:33:09.836Z,44.20
2023-05-05T15:35:37.933Z,44.10
2023-05-05T15:38:06.293Z,44.10
2023-05-05T15:40:34.619Z,44.20
2023-05-05T15:43:02.656Z,44.20
2023-05-05T15:45:32.079Z,44.30
2023-05-05T15:48:00.196Z,44.30
2023-05-05T15:50:28.282Z,44.40
2023-05-05T15:52:57.010Z,44.20
2023-05-05T15:55:25.598Z,44.10
2023-05-05T15:57:53.804Z,44.20
2023-05-05T16:00:22.518Z,44.10
2023-05-05T16:02:52.136Z,44.00
2023-05-05T16:05:22.848Z,44.00
2023-05-05T16:07:52.502Z,44.20
2023-05-05T16:10:20.906Z,44.10
2023-05-05T16:12:49.043Z,44.30
2023-05-05T16:15:17.181Z,44.40
2023-05-05T16:17:45.382Z,45.60
2023-05-05T16:20:14.997Z,45.10
2023-05-05T16:22:43.116Z,45.20
2023-05-05T16:25:11.430Z,45.00
2023-05-05T16:27:39.570Z,45.10
2023-05-05T16:30:10.164Z,45.00
2023-05-05T16:32:38.308Z,45.00
2023-05-05T16:35:07.536Z,44.80
2023-05-05T16:37:37.430Z,44.90
2023-05-05T16:40:06.722Z,44.50
2023-05-05T16:42:34.851Z,44.50
2023-05-05T16:45:03.057Z,44.50
2023-05-05T16:47:31.133Z,44.50
2023-05-05T16:49:59.264Z,44.50
2023-05-05T16:52:27.345Z,44.30
2023-05-05T16:54:57.263Z,44.40
2023-05-05T16:57:25.363Z,44.20
2023-05-05T16:59:56.309Z,44.30
2023-05-05T17:02:24.530Z,44.50
2023-05-05T17:04:52.794Z,44.80
2023-05-05T17:07:21.406Z,44.90
2023-05-05T17:09:49.452Z,45.10
2023-05-05T17:12:18.904Z,45.30
2023-05-05T17:14:47.019Z,45.70
2023-05-05T17:17:15.426Z,46.00
2023-05-05T17:19:44.725Z,46.50
2023-05-05T17:22:12.796Z,46.90
2023-05-05T17:24:40.987Z,47.00
2023-05-05T17:27:09.059Z,47.20
2023-05-05T17:29:40.862Z,47.30
2023-05-05T17:32:09.231Z,47.50
2023-05-05T17:34:37.537Z,47.70
2023-05-05T17:37:05.646Z,48.10
2023-05-05T17:39:34.260Z,48.70
2023-05-05T17:42:02.376Z,49.20
2023-05-05T17:44:31.438Z,49.90
2023-05-05T17:47:02.739Z,50.30
2023-05-05T17:49:30.845Z,51.20
2023-05-05T17:51:58.877Z,52.00
2023-05-05T17:54:27.106Z,53.00
2023-05-05T17:56:55.128Z,53.90
2023-05-05T17:59:23.225Z,54.70
2023-05-05T18:01:51.259Z,55.30
2023-05-05T18:04:20.664Z,55.60
2023-05-05T18:06:48.704Z,56.00
2023-05-05T18:09:17.668Z,55.80
2023-05-05T18:11:45.837Z,55.90
2023-05-05T18:14:13.877Z,56.10
2023-05-05T18:16:43.817Z,56.10
2023-05-05T18:19:11.879Z,56.70
2023-05-05T18:21:41.284Z,57.10
2023-05-05T18:24:19.458Z,57.80
2023-05-05T18:26:50.022Z,58.30
2023-05-05T18:29:18.310Z,58.70
2023-05-05T18:31:48.337Z,59.00
2023-05-05T18:34:17.012Z,59.30
2023-05-05T18:36:47.169Z,59.10
2023-05-05T18:39:15.668Z,59.10
2023-05-05T18:41:43.728Z,59.00
2023-05-05T18:44:11.988Z,59.40
2023-05-05T18:46:40.222Z,59.70
2023-05-05T18:49:08.385Z,59.80
2023-05-05T18:51:36.528Z,59.90
2023-05-05T18:54:06.166Z,60.20
2023-05-05T18:56:34.210Z,61.30
2023-05-05T18:59:02.268Z,61.20
2023-05-05T19:01:30.775Z,61.50
2023-05-05T19:03:58.882Z,61.80
2023-05-05T19:06:27.287Z,62.10
2023-05-05T19:08:55.443Z,62.10
2023-05-05T19:11:25.223Z,62.60
2023-05-05T19:13:53.308Z,63.20
2023-05-05T19:16:21.524Z,63.00
2023-05-05T19:18:49.664Z,63.20
2023-05-05T19:21:17.743Z,63.30
2023-05-05T19:23:45.816Z,63.50
2023-05-05T19:26:15.168Z,63.90
2023-05-05T19:28:44.578Z,63.50
2023-05-05T19:31:12.614Z,64.40
2023-05-05T19:33:44.857Z,64.10
2023-05-05T19:36:13.676Z,64.30
2023-05-05T19:38:44.306Z,64.60
2023-05-05T19:41:12.710Z,64.70
2023-05-05T19:43:40.809Z,65.20
2023-05-05T19:46:10.307Z,65.10
2023-05-05T19:48:38.437Z,65.40
2023-05-05T19:51:06.696Z,65.30
2023-05-05T19:53:34.754Z,65.50
2023-05-05T19:56:02.790Z,65.60
2023-05-05T19:58:31.394Z,65.80
2023-05-05T20:00:59.447Z,65.70
2023-05-05T20:03:28.950Z,65.80
2023-05-05T20:05:57.612Z,66.10
2023-05-05T20:08:25.656Z,66.20
2023-05-05T20:10:53.704Z,66.30
2023-05-05T20:13:21.796Z,66.60
2023-05-05T20:15:49.973Z,66.90
2023-05-05T20:18:18.076Z,67.00
2023-05-05T20:20:47.581Z,67.20
2023-05-05T20:23:16.144Z,67.40
2023-05-05T20:25:44.230Z,67.30
2023-05-05T20:28:12.284Z,67.10
2023-05-05T20:30:40.532Z,67.00
2023-05-05T20:33:08.587Z,67.10
2023-05-05T20:35:36.775Z,67.00
2023-05-05T20:38:06.265Z,67.00
2023-05-05T20:40:34.355Z,67.20
2023-05-05T20:43:02.440Z,67.10
2023-05-05T20:45:31.667Z,67.00
2023-05-05T20:48:00.793Z,67.00
2023-05-05T20:50:28.906Z,66.90
2023-05-05T20:52:57.073Z,67.00
2023-05-05T20:55:27.319Z,66.90
2023-05-05T20:57:55.432Z,67.10
2023-05-05T21:00:26.438Z,67.00
2023-05-05T21:02:54.675Z,67.20
2023-05-05T21:05:23.105Z,67.00
2023-05-05T21:07:51.609Z,67.00
2023-05-05T21:10:19.658Z,67.10
2023-05-05T21:12:49.081Z,67.20
2023-05-05T21:15:17.608Z,67.50
2023-05-05T21:17:46.391Z,67.50
2023-05-05T21:20:14.809Z,67.50
2023-05-05T21:22:42.859Z,67.60
2023-05-05T21:25:12.508Z,67.10
2023-05-05T21:27:40.553Z,66.90
2023-05-05T21:30:11.429Z,66.60
2023-05-05T21:32:39.705Z,66.50
2023-05-05T21:35:09.313Z,66.50
2023-05-05T21:37:39.041Z,67.20
2023-05-05T21:40:10.581Z,67.50
2023-05-05T21:42:39.029Z,67.50
2023-05-05T21:45:09.709Z,67.40
2023-05-05T21:47:37.892Z,67.50
2023-05-05T21:50:06.774Z,67.50
2023-05-05T21:52:34.875Z,67.50
2023-05-05T21:55:03.732Z,67.00
2023-05-05T21:57:31.790Z,66.60
2023-05-05T21:59:59.822Z,66.50
2023-05-05T22:02:29.310Z,66.70
2023-05-05T22:04:57.408Z,67.00
2023-05-05T22:07:26.116Z,66.90
2023-05-05T22:09:54.155Z,67.30
2023-05-05T22:12:22.197Z,67.30
2023-05-05T22:14:50.266Z,67.30
2023-05-05T22:17:18.338Z,67.30
2023-05-05T22:19:47.757Z,67.50
2023-05-05T22:22:17.390Z,67.60
2023-05-05T22:24:45.525Z,67.50
2023-05-05T22:27:13.578Z,67.40
2023-05-05T22:29:41.753Z,67.60
2023-05-05T22:32:09.821Z,67.60
2023-05-05T22:34:37.866Z,67.80
2023-05-05T22:37:07.457Z,67.90
2023-05-05T22:39:35.612Z,68.00
2023-05-05T22:42:03.839Z,68.10
2023-05-05T22:44:31.923Z,68.00
2023-05-05T22:47:00.065Z,68.10
2023-05-05T22:49:28.758Z,69.10
2023-05-05T22:51:57.206Z,68.30
2023-05-05T22:54:26.633Z,68.50
2023-05-05T22:56:54.669Z,68.60
2023-05-05T22:59:22.756Z,68.50
2023-05-05T23:01:50.842Z,68.60
2023-05-05T23:04:19.010Z,68.50
2023-05-05T23:06:47.045Z,68.50
2023-05-05T23:09:15.077Z,68.60
2023-05-05T23:11:44.485Z,68.60
2023-05-05T23:14:12.514Z,68.90
2023-05-05T23:16:40.626Z,68.60
2023-05-05T23:19:08.691Z,68.50
2023-05-05T23:21:49.341Z,68.60
2023-05-05T23:24:20.429Z,68.60
2023-05-05T23:26:49.859Z,68.40
2023-05-05T23:29:17.887Z,68.50
2023-05-05T23:31:46.964Z,68.50
2023-05-05T23:34:15.038Z,68.60
2023-05-05T23:36:43.128Z,68.70
2023-05-05T23:39:11.440Z,68.90
2023-05-05T23:41:39.516Z,68.80
2023-05-05T23:44:08.925Z,68.90
2023-05-05T23:46:37.124Z,69.00
2023-05-05T23:49:05.258Z,68.90
2023-05-05T23:51:33.324Z,68.80
2023-05-05T23:54:01.369Z,68.90
2023-05-05T23:56:29.426Z,68.80
2023-05-05T23:58:57.476Z,68.90
